createdAt,value
2022-12-19T00:02:21.044Z,21.10
2022-12-19T00:04:49.741Z,17.20
2022-12-19T00:07:17.707Z,17.20
2022-12-19T00:09:45.759Z,20.90
2022-12-19T00:12:18.996Z,19.00
2022-12-19T00:14:48.061Z,20.60
2022-12-19T00:17:15.622Z,18.40
2022-12-19T00:19:43.815Z,19.70
2022-12-19T00:22:12.518Z,19.80
2022-12-19T00:24:41.923Z,21.00
2022-12-19T00:27:11.599Z,20.00
2022-12-19T00:29:39.752Z,20.80
2022-12-19T00:32:07.475Z,17.60
2022-12-19T00:34:36.086Z,21.10
2022-12-19T00:37:03.701Z,17.50
2022-12-19T00:39:31.961Z,17.50
2022-12-19T00:41:59.907Z,19.80
2022-12-19T00:44:27.517Z,19.10
2022-12-19T00:46:55.355Z,16.90
2022-12-19T00:49:23.985Z,18.80
2022-12-19T00:51:51.875Z,21.50
2022-12-19T00:54:19.328Z,22.80
2022-12-19T00:56:47.271Z,19.00
2022-12-19T00:59:14.831Z,19.40
2022-12-19T01:01:45.912Z,20.40
2022-12-19T01:04:31.244Z,18.70
2022-12-19T01:07:03.131Z,19.40
2022-12-19T01:09:33.876Z,21.20
2022-12-19T01:12:20.460Z,20.30
2022-12-19T01:14:54.653Z,17.80
2022-12-19T01:17:38.714Z,19.40
2022-12-19T01:20:29.025Z,21.20
2022-12-19T01:23:00.489Z,20.40
2022-12-19T01:25:28.873Z,18.50
2022-12-19T01:27:57.130Z,24.30
2022-12-19T01:30:24.724Z,20.50
2022-12-19T01:32:53.616Z,18.70
2022-12-19T01:35:21.293Z,20.20
2022-12-19T01:37:51.204Z,16.40
2022-12-19T01:40:18.858Z,19.80
2022-12-19T01:42:45.639Z,19.40
2022-12-19T01:45:20.034Z,16.50
2022-12-19T01:48:32.992Z,18.60
2022-12-19T01:51:02.684Z,17.80
2022-12-19T01:53:49.952Z,18.30
2022-12-19T01:56:18.325Z,20.00
2022-12-19T01:58:48.833Z,16.30
2022-12-19T02:01:15.790Z,18.30
2022-12-19T02:03:42.621Z,19.30
2022-12-19T02:06:10.649Z,18.70
2022-12-19T02:08:37.611Z,19.20
2022-12-19T02:11:05.282Z,20.50
2022-12-19T02:13:32.270Z,16.80
2022-12-19T02:16:07.635Z,17.80
2022-12-19T02:19:16.112Z,18.20
2022-12-19T02:22:21.393Z,17.70
2022-12-19T02:25:10.133Z,19.40
2022-12-19T02:27:51.150Z,20.30
2022-12-19T02:30:49.184Z,22.30
2022-12-19T02:33:48.233Z,22.80
2022-12-19T02:36:18.924Z,19.90
2022-12-19T02:38:54.001Z,19.00
2022-12-19T02:41:23.771Z,20.40
2022-12-19T02:43:58.807Z,19.10
2022-12-19T02:46:27.527Z,22.40
2022-12-19T02:48:55.039Z,21.70
2022-12-19T02:51:21.857Z,21.10
2022-12-19T02:53:48.822Z,20.60
2022-12-19T02:56:18.446Z,19.90
2022-12-19T02:59:24.556Z,23.00
2022-12-19T03:02:03.195Z,22.20
2022-12-19T03:04:58.321Z,29.30
2022-12-19T03:07:36.230Z,33.80
2022-12-19T03:10:21.850Z,31.90
2022-12-19T03:12:52.385Z,28.00
2022-12-19T03:15:20.038Z,30.90
2022-12-19T03:17:47.204Z,24.50
2022-12-19T03:20:20.434Z,26.00
2022-12-19T03:22:47.740Z,26.00
2022-12-19T03:25:15.277Z,23.20
2022-12-19T03:27:42.087Z,23.70
2022-12-19T03:30:10.900Z,23.80
2022-12-19T03:32:38.495Z,22.10
2022-12-19T03:35:12.080Z,25.40
2022-12-19T03:37:39.801Z,26.40
2022-12-19T03:40:10.305Z,21.10
2022-12-19T03:42:56.783Z,23.20
2022-12-19T03:45:31.425Z,21.80
2022-12-19T03:47:59.768Z,22.70
2022-12-19T03:50:30.139Z,25.50
2022-12-19T03:53:03.615Z,22.00
2022-12-19T03:55:33.264Z,24.70
2022-12-19T03:58:05.898Z,24.50
2022-12-19T04:00:34.460Z,23.30
2022-12-19T04:03:01.888Z,23.10
2022-12-19T04:05:28.868Z,23.40
2022-12-19T04:07:58.974Z,25.40
2022-12-19T04:10:26.546Z,27.80
2022-12-19T04:12:56.884Z,34.70
2022-12-19T04:15:33.119Z,30.90
2022-12-19T04:17:59.984Z,32.50
2022-12-19T04:20:26.831Z,32.50
2022-12-19T04:22:58.762Z,33.90
2022-12-19T04:25:46.852Z,33.30
2022-12-19T04:28:19.321Z,33.80
2022-12-19T04:30:46.301Z,28.30
2022-12-19T04:33:13.178Z,36.00
2022-12-19T04:35:40.054Z,33.70
2022-12-19T04:38:07.121Z,34.80
2022-12-19T04:40:40.966Z,33.80
2022-12-19T04:45:35.583Z,34.80
2022-12-19T04:48:03.473Z,40.80
2022-12-19T04:50:30.303Z,39.00
2022-12-19T04:52:57.356Z,39.00
2022-12-19T04:55:24.231Z,39.30
2022-12-19T04:57:51.142Z,38.70
2022-12-19T05:00:18.114Z,42.70
2022-12-19T05:02:45.763Z,47.00
2022-12-19T05:05:12.795Z,37.30
2022-12-19T05:07:40.695Z,38.60
2022-12-19T05:10:07.966Z,38.00
2022-12-19T05:12:34.996Z,33.90
2022-12-19T05:15:01.844Z,35.70
2022-12-19T05:17:29.124Z,40.20
2022-12-19T05:19:55.997Z,40.50
2022-12-19T05:22:22.793Z,39.20
2022-12-19T05:24:49.594Z,46.80
2022-12-19T05:27:16.453Z,48.50
2022-12-19T05:29:43.283Z,42.70
2022-12-19T05:32:10.250Z,44.90
2022-12-19T05:34:37.422Z,38.60
2022-12-19T05:37:04.276Z,37.60
2022-12-19T05:39:31.087Z,40.20
2022-12-19T05:41:58.048Z,36.20
2022-12-19T05:44:25.761Z,37.00
2022-12-19T05:46:53.289Z,34.90
2022-12-19T05:49:20.351Z,31.70
2022-12-19T05:51:48.394Z,36.20
2022-12-19T05:54:15.311Z,40.20
2022-12-19T05:56:42.166Z,45.80
2022-12-19T05:59:09.008Z,43.20
2022-12-19T06:01:35.939Z,49.70
2022-12-19T06:04:04.110Z,46.10
2022-12-19T06:06:31.357Z,56.80
2022-12-19T06:08:58.679Z,52.00
2022-12-19T06:11:26.979Z,63.00
2022-12-19T06:13:53.783Z,56.90
2022-12-19T06:16:21.336Z,86.00
2022-12-19T06:18:48.467Z,103.40
2022-12-19T06:21:17.013Z,109.90
2022-12-19T06:23:44.285Z,121.10
2022-12-19T06:26:18.295Z,98.20
2022-12-19T06:28:46.423Z,87.40
2022-12-19T06:31:13.446Z,88.10
2022-12-19T06:33:40.407Z,90.40
2022-12-19T06:36:10.350Z,68.00
2022-12-19T06:38:37.407Z,66.60
2022-12-19T06:41:22.945Z,78.90
2022-12-19T06:43:53.445Z,71.90
2022-12-19T06:46:20.913Z,62.30
2022-12-19T06:48:48.561Z,59.40
2022-12-19T06:51:15.797Z,56.20
2022-12-19T06:53:42.719Z,81.10
2022-12-19T06:56:09.621Z,64.70
2022-12-19T06:58:36.662Z,62.80
2022-12-19T07:01:03.488Z,60.30
2022-12-19T07:03:40.313Z,58.80
2022-12-19T07:06:07.663Z,52.30
2022-12-19T07:08:34.463Z,51.90
2022-12-19T07:11:01.328Z,41.30
2022-12-19T07:13:28.418Z,49.30
2022-12-19T07:15:56.690Z,37.80
2022-12-19T07:18:23.609Z,34.10
2022-12-19T07:20:50.493Z,33.20
2022-12-19T07:23:18.919Z,36.00
2022-12-19T07:25:45.815Z,40.90
2022-12-19T07:28:12.803Z,34.60
2022-12-19T07:30:39.643Z,45.10
2022-12-19T07:33:08.919Z,45.20
2022-12-19T07:35:37.930Z,48.80
2022-12-19T07:38:05.643Z,44.00
2022-12-19T07:40:33.394Z,36.70
2022-12-19T07:43:04.043Z,42.10
2022-12-19T07:45:31.207Z,41.60
2022-12-19T07:48:01.985Z,41.60
2022-12-19T07:50:29.256Z,37.30
2022-12-19T07:52:56.932Z,40.80
2022-12-19T07:55:24.007Z,36.30
2022-12-19T07:57:51.022Z,35.30
2022-12-19T08:00:18.174Z,39.70
2022-12-19T08:02:45.166Z,36.20
2022-12-19T08:05:12.846Z,35.60
2022-12-19T08:07:40.863Z,32.60
2022-12-19T08:10:08.541Z,36.30
2022-12-19T08:12:35.473Z,32.20
2022-12-19T08:15:02.325Z,37.10
2022-12-19T08:17:29.221Z,35.60
2022-12-19T08:19:56.145Z,32.90
2022-12-19T08:22:23.395Z,36.30
2022-12-19T08:24:50.749Z,32.70
2022-12-19T08:27:17.767Z,31.40
2022-12-19T08:31:41.069Z,34.50
2022-12-19T08:34:08.019Z,36.70
2022-12-19T08:36:34.964Z,31.40
2022-12-19T08:39:01.904Z,30.40
2022-12-19T08:41:28.915Z,35.30
2022-12-19T08:43:56.616Z,33.40
2022-12-19T08:46:23.724Z,33.80
2022-12-19T08:48:50.809Z,30.60
2022-12-19T08:51:18.202Z,29.70
2022-12-19T08:53:45.833Z,25.10
2022-12-19T08:56:18.004Z,29.10
2022-12-19T08:58:45.152Z,28.80
2022-12-19T09:01:19.442Z,37.50
2022-12-19T09:04:23.438Z,25.70
2022-12-19T09:06:34.259Z,25.30
2022-12-19T09:09:01.296Z,29.70
2022-12-19T09:11:28.235Z,27.80
2022-12-19T09:13:58.558Z,30.20
2022-12-19T09:16:27.070Z,29.50
2022-12-19T09:18:55.622Z,27.60
2022-12-19T09:21:23.687Z,28.60
2022-12-19T09:23:52.449Z,30.50
2022-12-19T09:26:19.743Z,27.80
2022-12-19T20:49:48.156Z,79.90
2022-12-19T20:52:15.883Z,88.40
2022-12-19T20:54:42.933Z,86.20
2022-12-19T20:57:10.181Z,78.80
2022-12-19T20:59:37.049Z,82.70
2022-12-19T21:02:04.218Z,84.40
2022-12-19T21:04:31.567Z,90.50
2022-12-19T21:06:58.885Z,83.10
2022-12-19T21:09:26.031Z,81.10
2022-12-19T21:11:53.493Z,88.60
2022-12-19T21:14:23.408Z,84.80
2022-12-19T21:16:52.774Z,92.60
2022-12-19T21:19:20.367Z,100.40
2022-12-19T21:21:47.409Z,105.00
2022-12-19T21:24:14.664Z,108.00
2022-12-19T21:26:41.811Z,111.50
2022-12-19T21:29:10.084Z,113.70
2022-12-19T21:31:37.261Z,117.00
2022-12-19T21:34:04.383Z,118.60
2022-12-19T21:36:31.553Z,146.40
2022-12-19T21:39:00.259Z,130.20
2022-12-19T21:41:27.277Z,160.20
2022-12-19T21:43:55.253Z,147.70
2022-12-19T21:46:24.146Z,127.20
2022-12-19T21:48:53.293Z,126.50
2022-12-19T21:51:21.318Z,121.10
2022-12-19T21:53:48.600Z,123.90
2022-12-19T21:56:25.119Z,114.30
2022-12-19T21:58:59.743Z,116.80
2022-12-19T22:01:27.799Z,108.10
2022-12-19T22:04:02.124Z,102.70
2022-12-19T22:06:31.396Z,105.80
2022-12-19T22:09:02.278Z,112.20
2022-12-19T22:11:29.920Z,125.20
2022-12-19T22:14:05.426Z,120.00
2022-12-19T22:16:32.915Z,111.00
2022-12-19T22:19:00.136Z,114.70
2022-12-19T22:21:31.377Z,130.30
2022-12-19T22:24:02.138Z,132.50
2022-12-19T22:26:31.448Z,134.50
2022-12-19T22:28:59.667Z,128.90
2022-12-19T22:31:27.572Z,136.40
2022-12-19T22:33:59.456Z,121.90
2022-12-19T22:36:28.903Z,125.10
2022-12-19T22:38:56.525Z,112.60
2022-12-19T22:41:23.607Z,115.20
2022-12-19T22:43:50.621Z,110.00
2022-12-19T22:46:19.335Z,116.60
2022-12-19T22:48:49.748Z,119.00
2022-12-19T22:51:17.222Z,109.40
2022-12-19T22:53:44.086Z,129.70
2022-12-19T22:56:13.127Z,116.30
2022-12-19T22:58:40.962Z,124.80
2022-12-19T23:01:24.921Z,104.80
2022-12-19T23:03:53.429Z,104.70
2022-12-19T23:06:20.492Z,112.10
2022-12-19T23:08:47.594Z,106.90
2022-12-19T23:11:17.237Z,102.70
2022-12-19T23:13:44.541Z,101.80
2022-12-19T23:16:14.538Z,102.60
2022-12-19T23:18:41.907Z,102.20
2022-12-19T23:21:13.722Z,100.70
2022-12-19T23:23:42.700Z,104.60
2022-12-19T23:26:15.614Z,99.40
2022-12-19T23:28:43.938Z,93.90
2022-12-19T23:31:12.329Z,95.10
2022-12-19T23:33:39.125Z,93.50
2022-12-19T23:36:08.741Z,87.20
2022-12-19T23:38:35.743Z,87.90
2022-12-19T23:41:07.267Z,83.90
2022-12-19T23:43:35.672Z,90.10
2022-12-19T23:46:07.097Z,95.10
2022-12-19T23:48:33.991Z,85.00
2022-12-19T23:51:04.749Z,88.20
2022-12-19T23:53:32.077Z,78.70
2022-12-19T23:55:59.276Z,84.60
2022-12-19T23:58:26.123Z,82.50
